createdAt,value
2019-03-26T00:00:55.624Z,93822.08
2019-03-26T00:15:50.307Z,93850.98
2019-03-26T00:30:57.366Z,93865.13
2019-03-26T00:45:54.237Z,93883.61
2019-03-26T01:00:50.326Z,93893.28
2019-03-26T01:15:50.601Z,93909.95
2019-03-26T01:30:50.505Z,93917.74
2019-03-26T01:45:53.572Z,93929.64
2019-03-26T02:00:50.518Z,93947.30
2019-03-26T02:15:57.045Z,93962.97
2019-03-26T02:30:50.817Z,93986.09
2019-03-26T02:45:50.642Z,93998.17
2019-03-26T03:00:50.586Z,94033.44
2019-03-26T03:15:51.002Z,94069.80
2019-03-26T03:30:50.903Z,94091.76
2019-03-26T03:45:52.380Z,94121.77
2019-03-26T04:00:50.833Z,94157.05
2019-03-26T04:15:51.123Z,94183.50
2019-03-26T04:30:51.092Z,94208.02
2019-03-26T04:45:51.005Z,94232.61
2019-03-26T05:00:51.034Z,94244.30
2019-03-26T05:15:50.251Z,94274.84
2019-03-26T05:30:49.782Z,94269.70
2019-03-26T05:45:50.209Z,94276.09
2019-03-26T06:00:51.143Z,94277.00
2019-03-26T06:15:50.541Z,94279.45
2019-03-26T06:30:54.034Z,94286.14
2019-03-26T06:45:50.358Z,94292.03
2019-03-26T07:00:50.351Z,94298.55
2019-03-26T07:15:50.746Z,94300.87
2019-03-26T07:30:50.699Z,94306.84
2019-03-26T07:45:50.648Z,94314.27
2019-03-26T08:00:50.559Z,94334.80
2019-03-26T08:15:50.952Z,94324.81
2019-03-26T08:30:50.961Z,94329.95
2019-03-26T08:45:50.330Z,94341.02
2019-03-26T09:15:50.610Z,94343.83
2019-03-26T09:30:56.559Z,94345.78
2019-03-26T09:45:50.490Z,94353.44
2019-03-26T10:00:50.518Z,94366.09
2019-03-26T10:15:50.937Z,94375.48
2019-03-26T10:30:50.965Z,94379.72
2019-03-26T10:45:50.914Z,94387.55
2019-03-26T11:00:53.769Z,94383.33
2019-03-26T11:15:51.087Z,94368.21
2019-03-26T11:30:51.022Z,94373.89
2019-03-26T11:45:51.092Z,94372.71
2019-03-26T12:00:53.936Z,94384.14
2019-03-26T12:15:50.901Z,94385.86
2019-03-26T12:30:50.366Z,94409.48
2019-03-26T12:45:50.457Z,94416.96
2019-03-26T13:00:50.311Z,94414.42
2019-03-26T13:15:50.598Z,94407.77
2019-03-26T13:30:50.566Z,94412.68
2019-03-26T13:45:56.348Z,94417.63
2019-03-26T14:00:50.438Z,94425.66
2019-03-26T14:15:50.669Z,94429.11
2019-03-26T14:30:51.679Z,94429.75
2019-03-26T14:45:50.619Z,94421.55
2019-03-26T15:00:50.570Z,94431.27
2019-03-26T15:15:51.617Z,94441.22
2019-03-26T15:30:51.038Z,94467.41
2019-03-26T15:45:50.861Z,94484.25
2019-03-26T16:00:51.228Z,94504.37
2019-03-26T16:15:51.921Z,94506.88
2019-03-26T16:30:51.225Z,94506.66
2019-03-26T16:45:55.660Z,94521.64
2019-03-26T17:00:54.607Z,94540.73
2019-03-26T17:16:00.486Z,94555.16
2019-03-26T17:31:00.500Z,94578.17
2019-03-26T18:00:56.195Z,94615.18
2019-03-26T18:15:51.645Z,94642.02
2019-03-26T18:30:56.359Z,94659.75
2019-03-26T18:45:57.590Z,94671.70
2019-03-26T19:00:52.985Z,94677.89
2019-03-26T19:15:56.742Z,94684.11
2019-03-26T19:30:53.744Z,94694.78
2019-03-26T20:00:52.846Z,94727.33
2019-03-26T20:30:57.605Z,94749.11
2019-03-26T20:45:51.523Z,94756.59
2019-03-26T21:00:50.911Z,94766.11
2019-03-26T21:45:50.718Z,94829.77
2019-03-26T22:00:50.729Z,94842.57
2019-03-26T22:15:51.320Z,94852.23
2019-03-26T22:30:54.306Z,94852.47
2019-03-26T22:45:54.183Z,94864.77
2019-03-26T23:00:51.068Z,94864.00
2019-03-26T23:15:51.138Z,94867.17
2019-03-26T23:30:51.114Z,94866.89
2019-03-26T23:45:57.472Z,94870.28
